createdAt,value
2019-06-26T00:00:19.815Z,18.87
2019-06-26T00:02:48.270Z,16.67
2019-06-26T00:05:16.945Z,17.75
2019-06-26T00:07:45.533Z,17.95
2019-06-26T00:10:14.809Z,17.32
2019-06-26T00:12:43.594Z,15.28
2019-06-26T00:15:12.820Z,15.88
2019-06-26T00:17:41.264Z,16.50
2019-06-26T00:20:10.113Z,15.65
2019-06-26T00:22:38.512Z,15.28
2019-06-26T00:25:07.794Z,16.25
2019-06-26T00:27:36.232Z,13.85
2019-06-26T00:30:06.770Z,15.28
2019-06-26T00:32:41.700Z,15.70
2019-06-26T00:35:10.551Z,14.28
2019-06-26T00:37:41.397Z,14.80
2019-06-26T00:40:10.280Z,15.38
2019-06-26T00:42:38.700Z,14.07
2019-06-26T00:45:07.770Z,15.70
2019-06-26T00:47:37.249Z,17.95
2019-06-26T00:50:14.463Z,15.78
2019-06-26T00:52:45.347Z,18.37
2019-06-26T00:55:14.110Z,21.00
2019-06-26T00:57:42.524Z,20.88
2019-06-26T01:00:11.970Z,20.25
2019-06-26T01:02:40.383Z,22.15
2019-06-26T01:05:13.046Z,19.32
2019-06-26T01:07:41.458Z,18.52
2019-06-26T01:10:11.528Z,17.87
2019-06-26T01:12:39.936Z,18.95
2019-06-26T01:15:09.101Z,16.70
2019-06-26T01:17:37.520Z,16.25
2019-06-26T01:20:09.156Z,16.75
2019-06-26T01:22:37.573Z,16.45
2019-06-26T01:25:06.342Z,17.17
2019-06-26T01:27:37.476Z,16.10
2019-06-26T01:30:08.828Z,16.23
2019-06-26T01:32:37.244Z,15.45
2019-06-26T01:35:07.487Z,16.40
2019-06-26T01:37:35.957Z,17.85
2019-06-26T01:40:06.741Z,16.80
2019-06-26T01:42:35.150Z,18.48
2019-06-26T01:45:05.312Z,18.77
2019-06-26T01:47:33.821Z,16.12
2019-06-26T01:50:02.302Z,17.02
2019-06-26T01:52:33.353Z,18.30
2019-06-26T01:55:01.789Z,17.47
2019-06-26T01:57:30.206Z,17.02
2019-06-26T01:59:59.517Z,16.45
2019-06-26T02:02:27.955Z,15.43
2019-06-26T02:04:56.432Z,16.80
2019-06-26T02:07:25.792Z,16.55
2019-06-26T02:09:54.312Z,16.57
2019-06-26T02:12:22.745Z,16.85
2019-06-26T02:14:51.161Z,17.52
2019-06-26T02:17:19.610Z,16.40
2019-06-26T02:19:48.030Z,16.80
2019-06-26T02:22:20.595Z,16.97
2019-06-26T02:24:47.796Z,16.90
2019-06-26T02:27:16.196Z,17.17
2019-06-26T02:29:44.637Z,17.37
2019-06-26T02:32:13.056Z,16.32
2019-06-26T02:34:41.467Z,17.60
2019-06-26T02:37:13.519Z,16.87
2019-06-26T02:42:13.416Z,16.52
2019-06-26T02:44:53.303Z,18.37
2019-06-26T02:47:20.145Z,16.82
2019-06-26T02:49:45.453Z,17.77
2019-06-26T02:52:13.981Z,16.97
2019-06-26T02:54:46.516Z,15.90
2019-06-26T02:57:14.916Z,16.97
2019-06-26T02:59:43.349Z,17.45
2019-06-26T03:02:11.752Z,16.73
2019-06-26T03:04:41.282Z,18.12
2019-06-26T03:07:10.807Z,19.30
2019-06-26T03:09:39.248Z,19.32
2019-06-26T03:12:07.668Z,17.75
2019-06-26T03:14:40.137Z,18.85
2019-06-26T03:17:08.528Z,16.25
2019-06-26T03:19:36.937Z,17.75
2019-06-26T03:22:06.485Z,17.25
2019-06-26T03:24:34.882Z,17.35
2019-06-26T03:27:03.430Z,20.72
2019-06-26T03:29:31.859Z,20.52
2019-06-26T03:32:00.292Z,19.67
2019-06-26T03:34:28.733Z,19.05
2019-06-26T03:36:57.158Z,18.55
2019-06-26T03:39:26.479Z,19.70
2019-06-26T03:41:58.526Z,20.17
2019-06-26T03:44:26.944Z,18.25
2019-06-26T03:46:55.347Z,18.23
2019-06-26T03:49:23.874Z,18.45
2019-06-26T03:51:52.307Z,19.48
2019-06-26T03:54:20.728Z,18.85
2019-06-26T03:56:49.126Z,20.32
2019-06-26T03:59:17.544Z,20.30
2019-06-26T04:01:45.948Z,19.12
2019-06-26T04:04:14.388Z,16.67
2019-06-26T04:06:42.804Z,17.20
2019-06-26T04:09:14.845Z,16.95
2019-06-26T04:11:43.631Z,16.93
2019-06-26T04:14:14.499Z,16.93
2019-06-26T04:16:46.317Z,16.12
2019-06-26T04:19:19.089Z,17.60
2019-06-26T04:21:47.565Z,17.20
2019-06-26T04:24:16.934Z,16.75
2019-06-26T04:26:45.360Z,16.62
2019-06-26T04:29:14.715Z,15.35
2019-06-26T04:31:44.137Z,17.35
2019-06-26T04:34:12.553Z,17.53
2019-06-26T04:36:40.957Z,16.12
2019-06-26T04:39:09.361Z,16.25
2019-06-26T04:41:37.790Z,19.10
2019-06-26T04:44:25.671Z,17.37
2019-06-26T04:46:58.239Z,16.42
2019-06-26T04:49:26.642Z,15.40
2019-06-26T04:51:58.751Z,15.65
2019-06-26T04:54:30.710Z,13.95
2019-06-26T04:56:59.115Z,13.85
2019-06-26T04:59:27.530Z,15.38
2019-06-26T05:01:59.479Z,14.63
2019-06-26T05:04:27.888Z,14.28
2019-06-26T05:06:57.264Z,14.87
2019-06-26T05:09:25.689Z,14.67
2019-06-26T05:11:54.096Z,13.98
2019-06-26T05:14:24.957Z,14.47
2019-06-26T05:16:53.386Z,13.72
2019-06-26T05:19:21.826Z,13.13
2019-06-26T05:21:50.256Z,13.90
2019-06-26T05:24:18.669Z,13.77
2019-06-26T05:26:47.085Z,13.88
2019-06-26T05:29:15.492Z,13.13
2019-06-26T05:31:46.338Z,12.95
2019-06-26T05:34:15.766Z,13.97
2019-06-26T05:36:44.174Z,14.75
2019-06-26T05:39:12.589Z,13.08
2019-06-26T05:41:40.997Z,13.48
2019-06-26T05:44:09.410Z,12.98
2019-06-26T05:46:37.844Z,13.95
2019-06-26T05:49:08.831Z,13.53
2019-06-26T05:52:01.998Z,12.70
2019-06-26T05:54:28.990Z,13.48
2019-06-26T05:57:01.491Z,13.05
2019-06-26T05:59:30.953Z,14.18
2019-06-26T06:02:01.757Z,13.62
2019-06-26T06:04:30.413Z,13.97
2019-06-26T06:07:01.383Z,13.72
2019-06-26T06:09:29.773Z,14.17
2019-06-26T06:12:00.864Z,14.15
2019-06-26T06:14:33.025Z,13.72
2019-06-26T06:17:03.851Z,14.25
2019-06-26T06:19:35.915Z,13.47
2019-06-26T06:22:04.366Z,13.88
2019-06-26T06:24:32.782Z,15.58
2019-06-26T06:27:01.181Z,14.23
2019-06-26T06:29:30.798Z,14.45
2019-06-26T06:32:03.475Z,14.98
2019-06-26T06:34:31.883Z,14.23
2019-06-26T06:37:00.352Z,13.20
2019-06-26T06:39:28.741Z,14.87
2019-06-26T06:42:14.633Z,15.45
2019-06-26T06:44:59.160Z,14.80
2019-06-26T06:47:27.577Z,14.00
2019-06-26T06:49:55.989Z,13.63
2019-06-26T06:52:24.387Z,14.53
2019-06-26T06:54:52.805Z,14.13
2019-06-26T06:57:23.096Z,13.58
2019-06-26T06:59:51.520Z,13.48
2019-06-26T07:02:19.928Z,13.60
2019-06-26T07:04:48.366Z,13.65
2019-06-26T07:07:16.765Z,13.75
2019-06-26T07:09:45.201Z,13.43
2019-06-26T07:12:20.768Z,12.03
2019-06-26T07:14:48.486Z,13.00
2019-06-26T07:17:21.138Z,12.65
2019-06-26T07:19:49.936Z,12.73
2019-06-26T07:22:18.405Z,11.85
2019-06-26T07:24:49.270Z,10.90
2019-06-26T07:27:17.688Z,11.70
2019-06-26T07:29:46.128Z,11.25
2019-06-26T07:32:14.652Z,10.65
2019-06-26T07:34:45.741Z,11.08
2019-06-26T07:39:46.702Z,9.48
2019-06-26T07:42:15.135Z,9.73
2019-06-26T07:44:43.604Z,10.45
2019-06-26T07:47:22.832Z,10.98
2019-06-26T07:49:45.971Z,10.03
2019-06-26T07:52:14.832Z,9.80
2019-06-26T07:54:43.189Z,10.03
2019-06-26T07:57:11.615Z,8.23
2019-06-26T07:59:52.660Z,8.20
2019-06-26T08:02:21.057Z,7.70
2019-06-26T08:04:49.510Z,7.97
2019-06-26T08:07:17.970Z,8.45
2019-06-26T08:09:52.949Z,7.05
2019-06-26T08:12:21.410Z,7.47
2019-06-26T08:14:49.815Z,8.08
2019-06-26T08:17:20.756Z,7.40
2019-06-26T08:19:49.174Z,7.22
2019-06-26T08:22:17.614Z,7.80
2019-06-26T08:24:49.845Z,7.37
2019-06-26T08:27:18.240Z,6.62
2019-06-26T08:29:46.674Z,7.42
2019-06-26T08:32:15.094Z,7.55
2019-06-26T08:34:43.497Z,7.80
2019-06-26T08:37:11.903Z,7.22
2019-06-26T08:39:42.796Z,7.53
2019-06-26T08:42:11.191Z,7.22
2019-06-26T08:44:39.597Z,7.75
2019-06-26T08:47:08.004Z,8.00
2019-06-26T08:49:36.413Z,7.78
2019-06-26T08:52:05.770Z,8.13
2019-06-26T08:54:34.197Z,10.70
2019-06-26T08:57:06.688Z,8.83
2019-06-26T08:59:37.526Z,8.43
2019-06-26T09:02:08.461Z,8.70
2019-06-26T09:04:37.172Z,8.43
2019-06-26T09:07:05.639Z,8.40
2019-06-26T09:09:34.117Z,8.13
2019-06-26T09:12:02.542Z,7.75
2019-06-26T09:14:30.951Z,7.17
2019-06-26T09:16:59.350Z,7.00
2019-06-26T09:19:30.512Z,6.85
2019-06-26T09:22:03.072Z,6.78
2019-06-26T09:24:31.462Z,6.83
2019-06-26T09:27:01.898Z,6.67
2019-06-26T09:29:31.315Z,7.07
2019-06-26T09:31:59.725Z,6.15
2019-06-26T09:34:29.097Z,6.47
2019-06-26T09:36:59.962Z,6.78
2019-06-26T09:39:28.361Z,8.93
2019-06-26T09:41:56.760Z,7.00
2019-06-26T09:44:25.187Z,7.50
2019-06-26T09:46:57.446Z,6.75
2019-06-26T09:49:33.117Z,6.97
2019-06-26T09:52:04.012Z,6.62
2019-06-26T09:54:33.549Z,7.47
2019-06-26T09:57:03.109Z,8.53
2019-06-26T09:59:37.342Z,8.43
2019-06-26T10:02:08.388Z,8.58
2019-06-26T10:04:36.846Z,7.67
2019-06-26T10:07:09.294Z,8.08
2019-06-26T10:09:41.755Z,7.85
2019-06-26T10:12:11.286Z,7.97
2019-06-26T10:14:47.311Z,9.63
2019-06-26T10:17:09.923Z,8.48
2019-06-26T10:19:43.278Z,9.17
2019-06-26T10:22:11.653Z,8.75
2019-06-26T10:24:42.201Z,9.23
2019-06-26T10:27:10.625Z,9.25
2019-06-26T10:29:39.037Z,9.28
2019-06-26T10:32:07.453Z,8.98
2019-06-26T10:34:35.848Z,8.85
2019-06-26T10:37:06.830Z,10.00
2019-06-26T10:39:51.606Z,8.35
2019-06-26T10:42:23.553Z,9.13
2019-06-26T10:44:54.446Z,9.45
2019-06-26T10:47:25.317Z,8.18
2019-06-26T10:49:53.737Z,8.93
2019-06-26T10:52:22.461Z,8.35
2019-06-26T10:54:50.969Z,7.78
2019-06-26T10:57:19.384Z,6.85
2019-06-26T10:59:47.811Z,7.30
2019-06-26T11:02:17.282Z,6.60
2019-06-26T11:04:48.133Z,6.65
2019-06-26T11:07:22.135Z,6.85
2019-06-26T11:09:54.413Z,8.35
2019-06-26T11:12:32.708Z,8.10
2019-06-26T11:15:01.213Z,7.12
2019-06-26T11:17:29.626Z,8.20
2019-06-26T11:20:06.145Z,8.23
2019-06-26T11:22:38.622Z,7.72
2019-06-26T11:25:08.561Z,7.97
2019-06-26T11:27:37.263Z,8.13
2019-06-26T11:30:12.409Z,8.15
2019-06-26T11:32:40.831Z,7.50
2019-06-26T11:35:12.517Z,7.75
2019-06-26T11:37:41.898Z,6.87
2019-06-26T11:40:10.898Z,6.37
2019-06-26T11:42:39.318Z,6.35
2019-06-26T11:45:08.564Z,6.45
2019-06-26T11:47:45.887Z,7.00
2019-06-26T11:50:19.635Z,5.60
2019-06-26T11:52:52.625Z,6.08
2019-06-26T11:55:21.321Z,6.45
2019-06-26T11:57:49.724Z,6.00
2019-06-26T12:00:20.959Z,5.42
2019-06-26T12:02:49.355Z,6.50
2019-06-26T12:05:18.268Z,5.97
2019-06-26T12:08:05.498Z,5.20
2019-06-26T12:10:43.854Z,5.78
2019-06-26T12:13:13.219Z,5.95
2019-06-26T12:15:41.638Z,6.25
2019-06-26T12:18:10.107Z,7.33
2019-06-26T12:20:41.776Z,6.40
2019-06-26T12:23:13.729Z,5.83
2019-06-26T12:25:42.128Z,6.42
2019-06-26T12:28:10.542Z,6.20
2019-06-26T12:30:43.996Z,6.58
2019-06-26T12:33:12.472Z,5.83
2019-06-26T12:35:40.857Z,6.35
2019-06-26T12:38:09.279Z,5.90
2019-06-26T12:40:37.698Z,6.47
2019-06-26T12:43:13.777Z,6.42
2019-06-26T12:45:52.702Z,6.33
2019-06-26T12:48:30.719Z,7.30
2019-06-26T12:50:59.188Z,6.03
2019-06-26T12:53:33.441Z,6.97
2019-06-26T12:56:00.483Z,7.15
2019-06-26T12:58:28.875Z,6.57
2019-06-26T13:00:57.352Z,6.03
2019-06-26T13:03:29.906Z,6.67
2019-06-26T13:06:03.745Z,6.03
2019-06-26T13:08:33.128Z,6.90
2019-06-26T13:11:05.008Z,6.75
2019-06-26T13:16:10.110Z,6.35
2019-06-26T13:18:38.521Z,5.58
2019-06-26T13:21:09.342Z,6.35
2019-06-26T13:23:37.697Z,6.80
2019-06-26T13:26:06.092Z,6.55
2019-06-26T13:28:35.586Z,6.90
2019-06-26T13:31:04.010Z,7.40
2019-06-26T13:33:33.363Z,6.85
2019-06-26T13:36:06.648Z,7.40
2019-06-26T13:38:35.062Z,7.30
2019-06-26T13:41:06.102Z,6.70
2019-06-26T13:43:34.668Z,6.35
2019-06-26T13:46:03.079Z,7.70
2019-06-26T13:48:31.469Z,8.15
2019-06-26T13:51:09.233Z,6.67
2019-06-26T13:53:34.316Z,6.63
2019-06-26T13:56:03.005Z,6.80
2019-06-26T13:58:31.514Z,6.97
2019-06-26T14:00:59.924Z,6.47
2019-06-26T14:03:28.368Z,6.40
2019-06-26T14:05:56.754Z,7.45
2019-06-26T14:08:25.223Z,6.20
2019-06-26T14:11:07.670Z,6.58
2019-06-26T14:13:41.697Z,5.87
2019-06-26T14:16:11.127Z,6.28
2019-06-26T14:18:42.065Z,6.22
2019-06-26T14:21:24.574Z,6.62
2019-06-26T14:23:43.134Z,6.78
2019-06-26T14:26:15.410Z,6.85
2019-06-26T14:28:47.831Z,6.70
2019-06-26T14:31:16.249Z,6.03
2019-06-26T14:33:44.666Z,5.87
2019-06-26T14:36:13.091Z,6.37
2019-06-26T14:38:41.549Z,6.40
2019-06-26T14:41:09.970Z,6.08
2019-06-26T14:43:40.813Z,5.78
2019-06-26T14:46:12.417Z,5.80
2019-06-26T14:48:43.675Z,5.90
2019-06-26T14:51:12.079Z,5.80
2019-06-26T14:53:40.487Z,6.33
2019-06-26T14:56:09.952Z,6.15
2019-06-26T14:58:38.445Z,6.42
2019-06-26T15:01:06.810Z,6.35
2019-06-26T15:03:36.313Z,6.30
2019-06-26T15:06:15.961Z,6.70
2019-06-26T15:08:36.371Z,6.73
2019-06-26T15:11:15.377Z,6.40
2019-06-26T15:13:42.536Z,6.33
2019-06-26T15:16:10.937Z,6.75
2019-06-26T15:18:39.335Z,6.10
2019-06-26T15:21:08.880Z,5.87
2019-06-26T15:23:37.296Z,6.37
2019-06-26T15:26:12.564Z,6.15
2019-06-26T15:28:40.967Z,6.97
2019-06-26T15:31:13.094Z,6.30
2019-06-26T15:33:41.490Z,6.10
2019-06-26T15:36:12.533Z,6.37
2019-06-26T15:38:40.931Z,6.20
2019-06-26T15:41:09.370Z,6.58
2019-06-26T15:43:37.785Z,5.72
2019-06-26T15:46:06.176Z,5.30
2019-06-26T15:48:34.620Z,5.47
2019-06-26T15:51:03.041Z,5.83
2019-06-26T15:53:31.488Z,6.22
2019-06-26T15:56:03.942Z,5.50
2019-06-26T15:58:32.404Z,6.22
2019-06-26T16:01:01.962Z,6.03
2019-06-26T16:03:32.868Z,6.17
2019-06-26T16:06:01.270Z,5.78
2019-06-26T16:08:29.698Z,5.50
2019-06-26T16:11:05.107Z,5.67
2019-06-26T16:13:33.586Z,5.30
2019-06-26T16:16:02.006Z,5.00
2019-06-26T16:18:38.335Z,4.70
2019-06-26T16:21:06.742Z,4.75
2019-06-26T16:23:36.293Z,4.17
2019-06-26T16:26:04.967Z,4.75
2019-06-26T16:28:37.348Z,4.72
2019-06-26T16:31:05.741Z,3.83
2019-06-26T16:33:35.196Z,4.25
2019-06-26T16:36:03.642Z,4.17
2019-06-26T16:38:45.467Z,4.60
2019-06-26T16:41:13.996Z,3.98
2019-06-26T16:43:42.403Z,4.65
2019-06-26T16:46:13.350Z,4.00
2019-06-26T16:48:44.219Z,4.30
2019-06-26T16:51:13.520Z,4.30
2019-06-26T16:53:41.929Z,4.58
2019-06-26T16:56:10.402Z,4.87
2019-06-26T16:58:38.851Z,5.35
2019-06-26T17:01:07.430Z,5.42
2019-06-26T17:03:35.872Z,5.58
2019-06-26T17:06:05.222Z,6.20
2019-06-26T17:08:33.643Z,6.45
2019-06-26T17:11:03.027Z,6.47
2019-06-26T17:13:31.459Z,6.28
2019-06-26T17:15:59.893Z,6.00
2019-06-26T17:18:32.120Z,6.20
2019-06-26T17:23:28.233Z,5.03
2019-06-26T17:25:56.631Z,5.85
2019-06-26T17:28:31.565Z,6.75
2019-06-26T17:30:57.698Z,6.08
2019-06-26T17:33:27.734Z,5.27
2019-06-26T17:35:56.075Z,5.50
2019-06-26T17:38:25.412Z,5.57
2019-06-26T17:40:54.768Z,4.90
2019-06-26T17:43:24.305Z,5.93
2019-06-26T17:45:56.450Z,6.05
2019-06-26T17:48:24.981Z,6.35
2019-06-26T17:50:54.401Z,5.97
2019-06-26T17:53:23.857Z,5.90
2019-06-26T17:55:52.265Z,5.87
2019-06-26T17:58:25.359Z,6.13
2019-06-26T18:00:53.319Z,5.53
2019-06-26T18:03:25.773Z,6.53
2019-06-26T18:05:54.251Z,6.35
2019-06-26T18:08:35.418Z,6.30
2019-06-26T18:11:04.015Z,6.30
2019-06-26T18:13:39.977Z,5.42
2019-06-26T18:16:09.359Z,5.47
2019-06-26T18:18:41.681Z,5.03
2019-06-26T18:23:58.769Z,5.33
2019-06-26T18:26:26.811Z,4.03
2019-06-26T18:28:58.863Z,4.53
2019-06-26T18:31:33.644Z,4.42
2019-06-26T18:34:05.963Z,3.72
2019-06-26T18:39:32.772Z,3.12
2019-06-26T18:42:01.159Z,2.62
2019-06-26T18:44:30.474Z,2.33
2019-06-26T18:46:58.868Z,2.52
2019-06-26T18:49:41.040Z,2.45
2019-06-26T18:52:09.950Z,2.27
2019-06-26T18:54:39.404Z,2.17
2019-06-26T18:57:20.991Z,2.42
2019-06-26T19:00:08.187Z,2.37
2019-06-26T19:02:41.194Z,2.58
2019-06-26T19:05:11.241Z,3.12
2019-06-26T19:07:39.655Z,2.47
2019-06-26T19:10:12.739Z,3.58
2019-06-26T19:12:46.910Z,2.45
2019-06-26T19:15:20.066Z,3.40
2019-06-26T19:17:49.435Z,3.30
2019-06-26T19:20:18.988Z,3.00
2019-06-26T19:22:51.997Z,3.37
2019-06-26T19:25:21.410Z,3.10
2019-06-26T19:27:50.030Z,3.10
2019-06-26T19:30:19.148Z,3.20
2019-06-26T19:32:47.564Z,3.27
2019-06-26T19:35:21.360Z,3.00
2019-06-26T19:37:55.060Z,4.20
2019-06-26T19:40:29.035Z,2.80
2019-06-26T19:43:00.187Z,3.30
2019-06-26T19:45:36.091Z,4.13
2019-06-26T19:48:08.482Z,3.60
2019-06-26T19:50:36.906Z,3.37
2019-06-26T19:53:09.169Z,3.33
2019-06-26T19:58:08.578Z,3.17
2019-06-26T20:00:37.355Z,3.22
2019-06-26T20:03:09.307Z,3.70
2019-06-26T20:05:40.462Z,3.58
2019-06-26T20:08:08.861Z,3.40
2019-06-26T20:10:39.768Z,3.52
2019-06-26T20:13:16.945Z,3.33
2019-06-26T20:15:56.371Z,3.02
2019-06-26T20:18:27.298Z,2.90
2019-06-26T20:20:58.453Z,3.77
2019-06-26T20:23:26.858Z,3.70
2019-06-26T20:25:55.265Z,3.27
2019-06-26T20:31:17.219Z,3.10
2019-06-26T20:33:49.721Z,3.75
2019-06-26T20:36:18.133Z,2.90
2019-06-26T20:38:46.537Z,2.92
2019-06-26T20:41:14.954Z,3.15
2019-06-26T20:43:43.359Z,2.75
2019-06-26T20:46:15.523Z,3.15
2019-06-26T20:48:44.104Z,3.40
2019-06-26T20:51:12.690Z,2.70
2019-06-26T20:53:41.129Z,2.58
2019-06-26T20:56:10.824Z,2.45
2019-06-26T20:58:39.256Z,2.72
2019-06-26T21:01:09.657Z,3.40
2019-06-26T21:03:39.170Z,3.50
2019-06-26T21:06:10.314Z,2.50
2019-06-26T21:08:39.829Z,2.83
2019-06-26T21:11:15.776Z,2.77
2019-06-26T21:13:44.039Z,2.17
2019-06-26T21:16:17.550Z,2.50
2019-06-26T21:18:47.050Z,2.70
2019-06-26T21:21:15.486Z,3.15
2019-06-26T21:23:44.839Z,2.83
2019-06-26T21:26:13.228Z,3.17
2019-06-26T21:28:45.173Z,2.83
2019-06-26T21:31:16.074Z,2.80
2019-06-26T21:33:48.379Z,2.83
2019-06-26T21:38:47.051Z,3.15
2019-06-26T21:41:17.505Z,3.27
2019-06-26T21:47:09.368Z,3.25
2019-06-26T21:49:37.792Z,2.90
2019-06-26T21:52:08.684Z,3.65
2019-06-26T21:54:39.614Z,3.08
2019-06-26T21:57:11.606Z,3.35
2019-06-26T21:59:43.974Z,3.02
2019-06-26T22:04:42.532Z,2.67
2019-06-26T22:07:12.877Z,3.20
2019-06-26T22:09:42.368Z,2.98
2019-06-26T22:12:10.879Z,4.35
2019-06-26T22:14:39.273Z,2.70
2019-06-26T22:17:08.965Z,3.50
2019-06-26T22:19:37.274Z,2.72
2019-06-26T22:22:05.687Z,2.77
2019-06-26T22:24:34.295Z,3.05
2019-06-26T22:27:02.692Z,3.60
2019-06-26T22:29:32.191Z,3.30
2019-06-26T22:32:00.689Z,3.30
2019-06-26T22:34:29.090Z,4.03
2019-06-26T22:36:58.521Z,3.90
2019-06-26T22:39:27.083Z,2.83
2019-06-26T22:41:56.507Z,3.20
2019-06-26T22:44:24.912Z,3.50
2019-06-26T22:46:56.994Z,3.80
2019-06-26T22:51:53.018Z,3.10
2019-06-26T22:54:21.408Z,3.45
2019-06-26T22:56:49.900Z,3.52
2019-06-26T22:59:18.320Z,3.47
2019-06-26T23:01:46.730Z,3.65
2019-06-26T23:04:26.776Z,2.95
2019-06-26T23:06:55.191Z,3.27
2019-06-26T23:09:24.648Z,3.20
2019-06-26T23:11:53.138Z,2.92
2019-06-26T23:14:21.539Z,3.00
2019-06-26T23:16:56.403Z,2.95
2019-06-26T23:19:24.800Z,3.02
2019-06-26T23:21:57.046Z,3.02
2019-06-26T23:24:30.031Z,2.47
2019-06-26T23:27:02.653Z,2.80
2019-06-26T23:29:32.155Z,2.83
2019-06-26T23:32:03.282Z,3.00
2019-06-26T23:34:30.734Z,2.85
2019-06-26T23:37:04.116Z,3.35
2019-06-26T23:39:36.787Z,3.27
2019-06-26T23:42:09.010Z,3.62
2019-06-26T23:44:39.975Z,3.05
2019-06-26T23:47:12.389Z,3.17
2019-06-26T23:52:16.851Z,3.33
2019-06-26T23:54:47.875Z,3.33
2019-06-26T23:57:19.723Z,3.42
